createdAt,value
2022-09-05T00:02:48.962Z,75
2022-09-05T00:07:58.684Z,75
2022-09-05T00:12:45.630Z,75
2022-09-05T00:18:20.411Z,76
2022-09-05T00:24:24.132Z,75
2022-09-05T01:03:01.600Z,76
2022-09-05T01:23:09.159Z,76
2022-09-05T01:33:11.781Z,76
2022-09-05T01:38:13.520Z,77
2022-09-05T01:43:15.226Z,77
2022-09-05T01:48:16.920Z,77
2022-09-05T01:53:19.136Z,77
2022-09-05T01:58:20.471Z,78
2022-09-05T02:03:22.700Z,77
2022-09-05T02:08:23.704Z,78
2022-09-05T02:13:25.358Z,78
2022-09-05T02:18:26.520Z,78
2022-09-05T02:23:40.576Z,78
2022-09-05T02:28:29.501Z,78
2022-09-05T02:33:31.286Z,78
2022-09-05T02:40:22.049Z,78
2022-09-05T02:45:15.554Z,79
2022-09-05T02:48:36.523Z,78
2022-09-05T02:57:31.169Z,78
2022-09-05T02:59:05.987Z,78
2022-09-05T03:03:41.068Z,79
2022-09-05T03:08:42.500Z,79
2022-09-05T03:13:46.368Z,79
2022-09-05T03:18:45.435Z,79
2022-09-05T03:23:47.376Z,79
2022-09-05T03:28:48.664Z,79
2022-09-05T03:33:50.194Z,80
2022-09-05T03:38:51.661Z,79
2022-09-05T03:43:53.094Z,79
2022-09-05T03:48:55.235Z,80
2022-09-05T03:57:21.672Z,79
2022-09-05T03:58:59.602Z,79
2022-09-05T04:08:13.015Z,80
2022-09-05T04:09:02.518Z,80
2022-09-05T04:14:03.904Z,80
2022-09-05T04:19:05.627Z,81
2022-09-05T04:24:07.410Z,81
2022-09-05T04:29:09.215Z,81
2022-09-05T04:34:11.177Z,81
2022-09-05T04:39:19.376Z,81
2022-09-05T04:44:20.690Z,81
2022-09-05T04:49:23.530Z,81
2022-09-05T04:54:23.904Z,81
2022-09-05T05:00:35.136Z,82
2022-09-05T05:06:06.257Z,82
2022-09-05T05:09:28.299Z,82
2022-09-05T05:18:05.517Z,82
2022-09-05T05:19:31.732Z,82
2022-09-05T05:24:33.665Z,82
2022-09-05T05:29:36.541Z,83
2022-09-05T05:34:37.502Z,82
2022-09-05T05:39:39.032Z,83
2022-09-05T05:44:40.431Z,83
2022-09-05T05:49:41.987Z,83
2022-09-05T05:54:43.474Z,83
2022-09-05T05:59:55.412Z,83
2022-09-05T06:04:47.717Z,80
2022-09-05T06:11:44.790Z,79
2022-09-05T06:15:08.332Z,77
2022-09-05T06:20:08.279Z,74
2022-09-05T06:24:54.551Z,73
2022-09-05T06:29:55.847Z,70
2022-09-05T06:34:59.868Z,68
2022-09-05T06:39:59.176Z,67
2022-09-05T06:45:04.333Z,66
2022-09-05T06:50:04.487Z,65
2022-09-05T06:55:04.722Z,63
2022-09-05T07:00:06.690Z,61
2022-09-05T07:05:14.994Z,61
2022-09-05T07:10:34.919Z,61
2022-09-05T07:20:12.892Z,61
2022-09-05T07:25:18.160Z,60
2022-09-05T07:30:16.270Z,59
2022-09-05T07:35:17.756Z,59
2022-09-05T07:40:24.797Z,59
2022-09-05T07:45:21.334Z,59
2022-09-05T07:50:50.207Z,58
2022-09-05T07:56:48.562Z,56
2022-09-05T08:00:29.189Z,53
2022-09-05T08:05:34.733Z,52
2022-09-05T08:10:30.971Z,48
2022-09-05T08:15:39.706Z,45
2022-09-05T08:20:32.980Z,44
2022-09-05T08:25:43.667Z,43
2022-09-05T08:30:37.057Z,43
2022-09-05T08:35:38.698Z,44
2022-09-05T08:40:40.538Z,44
2022-09-05T08:46:38.747Z,44
2022-09-05T08:50:44.188Z,44
2022-09-05T08:55:46.270Z,44
2022-09-05T09:00:55.675Z,45
2022-09-05T09:05:56.774Z,44
2022-09-05T09:10:51.842Z,45
2022-09-05T09:15:53.470Z,45
2022-09-05T09:20:55.043Z,43
2022-09-05T09:25:57.088Z,42
2022-09-05T09:30:58.745Z,40
2022-09-05T09:36:06.260Z,39
2022-09-05T09:41:02.342Z,37
2022-09-05T09:46:03.445Z,36
2022-09-05T09:51:05.386Z,35
2022-09-05T09:56:07.187Z,35
2022-09-05T10:01:09.874Z,34
2022-09-05T10:10:28.185Z,33
2022-09-05T10:11:33.881Z,33
2022-09-05T10:16:14.366Z,34
2022-09-05T10:21:17.789Z,33
2022-09-05T10:26:18.252Z,33
2022-09-05T10:32:17.974Z,34
2022-09-05T10:36:21.650Z,33
2022-09-05T10:41:23.237Z,32
2022-09-05T10:46:49.395Z,33
2022-09-05T10:51:27.696Z,33
2022-09-05T10:56:28.862Z,34
2022-09-05T11:02:16.632Z,34
2022-09-05T11:06:32.353Z,34
2022-09-05T11:11:34.475Z,35
2022-09-05T11:16:36.012Z,35
2022-09-05T11:21:37.648Z,35
2022-09-05T11:26:39.113Z,36
2022-09-05T11:32:25.396Z,35
2022-09-05T11:39:50.009Z,36
2022-09-05T11:41:44.164Z,36
2022-09-05T11:46:45.289Z,36
2022-09-05T11:51:47.215Z,35
2022-09-05T11:56:49.138Z,36
2022-09-05T12:01:50.895Z,37
2022-09-05T12:06:53.057Z,37
2022-09-05T12:11:54.965Z,38
2022-09-05T12:16:56.129Z,38
2022-09-05T12:21:58.029Z,37
2022-09-05T12:27:37.548Z,38
2022-09-05T12:32:30.598Z,37
2022-09-05T12:39:45.250Z,37
2022-09-05T12:42:11.074Z,38
2022-09-05T12:47:16.538Z,38
2022-09-05T12:52:08.281Z,38
2022-09-05T12:58:53.651Z,38
2022-09-05T13:03:00.620Z,38
2022-09-05T13:07:13.657Z,38
2022-09-05T13:14:51.151Z,38
2022-09-05T13:17:16.530Z,38
2022-09-05T13:22:17.712Z,37
2022-09-05T13:27:19.752Z,36
2022-09-05T13:37:06.210Z,37
2022-09-05T13:38:08.710Z,36
2022-09-05T13:42:25.200Z,37
2022-09-05T13:47:29.193Z,37
2022-09-05T13:52:29.150Z,37
2022-09-05T13:57:31.538Z,37
2022-09-05T14:02:32.401Z,36
2022-09-05T14:07:48.566Z,36
2022-09-05T14:12:37.176Z,36
2022-09-05T14:17:52.690Z,36
2022-09-05T14:22:37.903Z,37
2022-09-05T14:27:39.843Z,36
2022-09-05T14:35:03.607Z,36
2022-09-05T14:38:03.991Z,36
2022-09-05T14:42:44.607Z,36
2022-09-05T14:47:47.396Z,36
2022-09-05T14:52:48.590Z,36
2022-09-05T15:12:59.487Z,35
2022-09-05T15:17:58.011Z,35
2022-09-05T15:22:59.507Z,35
2022-09-05T15:43:06.424Z,36
2022-09-05T15:48:08.166Z,36
2022-09-05T15:53:09.926Z,36
2022-09-05T15:58:12.044Z,36
2022-09-05T16:04:05.683Z,36
2022-09-05T16:10:55.524Z,37
2022-09-05T16:13:17.309Z,37
2022-09-05T16:23:12.504Z,38
2022-09-05T16:23:38.899Z,37
2022-09-05T16:28:22.533Z,38
2022-09-05T16:33:24.260Z,38
2022-09-05T16:38:43.748Z,37
2022-09-05T16:43:27.592Z,38
2022-09-05T16:48:29.626Z,38
2022-09-05T16:53:32.175Z,38
2022-09-05T16:58:33.019Z,39
2022-09-05T17:03:34.782Z,39
2022-09-05T17:08:36.167Z,39
2022-09-05T17:13:38.185Z,39
2022-09-05T17:18:40.380Z,40
2022-09-05T17:24:47.887Z,41
2022-09-05T17:29:21.725Z,41
2022-09-05T17:33:45.459Z,42
2022-09-05T17:38:46.270Z,42
2022-09-05T17:43:47.854Z,44
2022-09-05T17:49:10.141Z,44
2022-09-05T17:53:51.464Z,44
2022-09-05T17:58:52.693Z,45
2022-09-05T18:03:53.880Z,45
2022-09-05T18:08:55.091Z,45
2022-09-05T18:13:56.540Z,46
2022-09-05T18:19:29.155Z,47
2022-09-05T18:23:59.609Z,48
2022-09-05T18:29:01.378Z,47
2022-09-05T18:34:03.363Z,48
2022-09-05T18:39:04.512Z,48
2022-09-05T18:44:12.796Z,48
2022-09-05T18:50:22.493Z,49
2022-09-05T18:54:09.729Z,50
2022-09-05T18:59:11.123Z,52
2022-09-05T19:04:33.055Z,52
2022-09-05T19:09:14.724Z,52
2022-09-05T19:14:25.855Z,52
2022-09-05T19:19:17.850Z,53
2022-09-05T19:24:19.443Z,53
2022-09-05T19:33:54.764Z,53
2022-09-05T19:36:48.341Z,55
2022-09-05T19:40:48.863Z,55
2022-09-05T19:47:32.303Z,55
2022-09-05T19:49:27.882Z,55
2022-09-05T19:54:34.184Z,55
2022-09-05T19:59:34.210Z,56
2022-09-05T20:04:32.148Z,56
2022-09-05T20:09:34.229Z,57
2022-09-05T20:14:35.906Z,58
2022-09-05T20:19:37.469Z,58
2022-09-05T20:24:38.572Z,57
2022-09-05T20:29:43.530Z,58
2022-09-05T20:35:15.992Z,58
2022-09-05T20:43:14.036Z,58
2022-09-05T20:44:45.578Z,58
2022-09-05T20:54:10.806Z,59
2022-09-05T20:54:49.022Z,60
2022-09-05T20:59:49.947Z,61
2022-09-05T21:04:51.296Z,61
2022-09-05T21:09:52.506Z,62
2022-09-05T21:14:53.929Z,61
2022-09-05T21:19:55.500Z,62
2022-09-05T21:25:03.431Z,62
2022-09-05T21:30:04.912Z,62
2022-09-05T21:35:15.377Z,63
2022-09-05T21:40:07.947Z,63
2022-09-05T21:47:37.286Z,63
2022-09-05T21:50:11.121Z,63
2022-09-05T21:59:23.707Z,63
2022-09-05T22:15:26.962Z,64
2022-09-05T22:20:21.046Z,64
2022-09-05T22:25:22.226Z,65
2022-09-05T22:30:24.269Z,65
2022-09-05T22:35:27.103Z,66
2022-09-05T22:40:27.817Z,66
2022-09-05T22:45:29.704Z,66
2022-09-05T22:50:31.611Z,66
2022-09-05T22:55:33.782Z,66
2022-09-05T23:00:35.709Z,67
2022-09-05T23:05:37.407Z,67
2022-09-05T23:10:39.572Z,68
2022-09-05T23:15:41.779Z,68
2022-09-05T23:20:43.569Z,68
2022-09-05T23:25:45.471Z,68
2022-09-05T23:30:47.443Z,68
2022-09-05T23:35:48.633Z,68
2022-09-05T23:40:50.428Z,69
2022-09-05T23:45:51.910Z,69
2022-09-05T23:50:53.329Z,69
2022-09-05T23:55:54.610Z,69
